createdAt,value
2023-03-01T00:01:39.130Z,59.39
2023-03-01T00:04:05.625Z,59.93
2023-03-01T00:06:32.504Z,59.76
2023-03-01T00:08:59.212Z,60.33
2023-03-01T00:11:30.286Z,60.25
2023-03-01T00:14:00.224Z,60.41
2023-03-01T00:16:36.774Z,60.40
2023-03-01T00:19:03.707Z,60.19
2023-03-01T00:21:30.255Z,59.71
2023-03-01T00:23:57.808Z,60.30
2023-03-01T00:26:28.287Z,60.47
2023-03-01T00:28:58.819Z,60.53
2023-03-01T00:31:30.328Z,60.67
2023-03-01T00:34:03.576Z,60.15
2023-03-01T00:36:41.062Z,60.31
2023-03-01T00:39:15.987Z,60.79
2023-03-01T00:41:43.938Z,60.67
2023-03-01T00:44:11.347Z,60.19
2023-03-01T00:46:38.467Z,59.77
2023-03-01T00:49:11.130Z,59.51
2023-03-01T00:51:37.693Z,59.63
2023-03-01T00:54:06.906Z,59.45
2023-03-01T00:56:33.832Z,59.46
2023-03-01T00:59:00.892Z,59.69
2023-03-01T01:01:31.246Z,59.42
2023-03-01T01:04:02.293Z,60.00
2023-03-01T01:06:44.438Z,59.97
2023-03-01T01:09:25.766Z,59.89
2023-03-01T01:11:52.796Z,59.92
2023-03-01T01:14:20.184Z,59.89
2023-03-01T01:16:47.174Z,59.24
2023-03-01T01:19:14.658Z,59.96
2023-03-01T01:21:43.997Z,59.67
2023-03-01T01:24:11.034Z,59.32
2023-03-01T01:26:37.557Z,59.74
2023-03-01T01:29:05.988Z,59.67
2023-03-01T01:31:34.576Z,59.27
2023-03-01T01:34:03.360Z,58.94
2023-03-01T01:36:31.295Z,59.65
2023-03-01T01:38:58.882Z,59.49
2023-03-01T01:41:28.967Z,59.96
2023-03-01T01:44:19.886Z,59.96
2023-03-01T01:47:05.048Z,60.24
2023-03-01T01:49:40.463Z,60.27
2023-03-01T01:52:19.363Z,60.59
2023-03-01T01:54:56.025Z,60.42
2023-03-01T01:57:30.419Z,62.38
2023-03-01T02:00:10.692Z,61.33
2023-03-01T02:02:43.736Z,60.23
2023-03-01T02:05:27.112Z,60.39
2023-03-01T02:07:54.170Z,60.90
2023-03-01T02:10:24.294Z,60.76
2023-03-01T02:12:52.723Z,60.56
2023-03-01T02:15:19.203Z,60.34
2023-03-01T02:17:45.952Z,60.39
2023-03-01T02:20:35.404Z,60.35
2023-03-01T02:23:02.118Z,61.17
2023-03-01T02:25:35.001Z,61.52
2023-03-01T02:28:16.543Z,60.81
2023-03-01T02:31:07.232Z,61.27
2023-03-01T02:33:40.611Z,60.94
2023-03-01T02:36:18.041Z,60.72
2023-03-01T02:38:45.837Z,60.83
2023-03-01T02:41:17.169Z,61.46
2023-03-01T02:43:44.144Z,62.49
2023-03-01T02:46:25.361Z,62.23
2023-03-01T02:48:54.730Z,62.28
2023-03-01T02:51:55.666Z,62.40
2023-03-01T02:54:47.832Z,62.69
2023-03-01T02:57:15.676Z,62.14
2023-03-01T02:59:44.061Z,62.11
2023-03-01T03:02:36.917Z,61.56
2023-03-01T03:05:15.680Z,61.21
2023-03-01T03:07:46.008Z,61.61
2023-03-01T03:10:23.395Z,61.88
2023-03-01T03:13:04.852Z,61.49
2023-03-01T03:15:32.004Z,61.84
2023-03-01T03:17:59.797Z,62.42
2023-03-01T03:20:29.210Z,62.87
2023-03-01T03:22:57.639Z,62.75
2023-03-01T03:25:25.535Z,61.88
2023-03-01T03:27:57.459Z,62.04
2023-03-01T03:30:31.253Z,62.46
2023-03-01T03:33:02.248Z,62.65
2023-03-01T03:35:33.690Z,61.47
2023-03-01T03:38:07.414Z,62.69
2023-03-01T03:40:38.912Z,63.34
2023-03-01T03:43:12.983Z,62.35
2023-03-01T03:45:39.962Z,63.13
2023-03-01T03:48:10.940Z,62.42
2023-03-01T03:50:41.696Z,62.88
2023-03-01T03:53:13.011Z,62.27
2023-03-01T03:55:40.075Z,61.57
2023-03-01T03:58:10.468Z,61.81
2023-03-01T04:00:43.964Z,62.60
2023-03-01T04:03:12.790Z,63.03
2023-03-01T04:05:40.817Z,62.35
2023-03-01T04:08:08.616Z,62.98
2023-03-01T04:10:48.622Z,63.41
2023-03-01T04:13:20.640Z,62.51
2023-03-01T04:15:50.350Z,63.03
2023-03-01T04:18:20.148Z,62.44
2023-03-01T04:20:51.876Z,62.61
2023-03-01T04:23:21.512Z,62.57
2023-03-01T04:25:54.902Z,62.49
2023-03-01T04:28:37.098Z,62.14
2023-03-01T04:31:14.260Z,62.33
2023-03-01T04:33:56.036Z,62.48
2023-03-01T04:36:30.588Z,63.29
2023-03-01T04:38:58.312Z,63.19
2023-03-01T04:41:26.108Z,62.01
2023-03-01T04:43:52.922Z,62.77
2023-03-01T04:46:21.580Z,63.07
2023-03-01T04:48:48.558Z,62.56
2023-03-01T04:51:15.410Z,62.65
2023-03-01T04:53:43.837Z,62.82
2023-03-01T04:56:10.872Z,63.29
2023-03-01T04:58:40.101Z,63.25
2023-03-01T05:01:16.441Z,63.51
2023-03-01T05:03:49.605Z,63.39
2023-03-01T05:06:21.555Z,62.53
2023-03-01T05:08:48.287Z,63.31
2023-03-01T05:11:20.771Z,63.24
2023-03-01T05:13:47.277Z,63.32
2023-03-01T05:16:17.813Z,63.01
2023-03-01T05:18:44.518Z,62.77
2023-03-01T05:21:18.396Z,63.37
2023-03-01T05:23:46.182Z,63.05
2023-03-01T05:26:27.441Z,63.19
2023-03-01T05:28:59.397Z,62.93
2023-03-01T05:31:27.150Z,63.81
2023-03-01T05:33:53.810Z,64.61
2023-03-01T05:36:20.323Z,63.76
2023-03-01T05:38:46.779Z,63.75
2023-03-01T05:41:17.877Z,64.16
2023-03-01T05:43:45.841Z,63.78
2023-03-01T05:46:14.191Z,63.48
2023-03-01T05:48:41.035Z,63.38
2023-03-01T05:51:07.633Z,63.40
2023-03-01T05:53:34.222Z,62.88
2023-03-01T05:56:01.191Z,62.85
2023-03-01T05:58:29.478Z,63.47
2023-03-01T06:00:57.243Z,63.56
2023-03-01T06:03:23.801Z,63.26
2023-03-01T06:05:50.383Z,62.74
2023-03-01T06:08:16.952Z,63.02
2023-03-01T06:10:48.494Z,62.86
2023-03-01T06:13:14.951Z,62.07
2023-03-01T06:15:41.689Z,62.61
2023-03-01T06:18:16.848Z,61.70
2023-03-01T06:20:43.341Z,62.39
2023-03-01T06:23:10.795Z,62.49
2023-03-01T06:25:38.169Z,62.25
2023-03-01T06:28:05.434Z,63.93
2023-03-01T06:30:31.955Z,63.61
2023-03-01T06:33:01.743Z,63.69
2023-03-01T06:35:35.977Z,63.70
2023-03-01T06:38:06.414Z,63.61
2023-03-01T06:40:36.147Z,63.34
2023-03-01T06:43:03.042Z,63.34
2023-03-01T06:45:29.518Z,62.73
2023-03-01T06:48:06.943Z,62.64
2023-03-01T06:50:35.485Z,62.39
2023-03-01T06:53:11.013Z,63.14
2023-03-01T06:55:37.645Z,62.53
2023-03-01T06:58:07.075Z,62.28
2023-03-01T07:00:34.080Z,62.58
2023-03-01T07:03:03.374Z,62.59
2023-03-01T07:05:31.671Z,63.76
2023-03-01T07:07:58.364Z,63.96
2023-03-01T07:10:25.314Z,63.55
2023-03-01T07:12:56.560Z,63.08
2023-03-01T07:15:23.199Z,63.32
2023-03-01T07:17:51.617Z,62.19
2023-03-01T07:20:23.357Z,63.39
2023-03-01T07:22:49.856Z,63.19
2023-03-01T07:25:18.845Z,63.03
2023-03-01T07:27:51.077Z,62.98
2023-03-01T07:30:18.249Z,63.60
2023-03-01T07:32:53.531Z,63.40
2023-03-01T07:35:21.525Z,63.73
2023-03-01T07:37:48.006Z,63.93
2023-03-01T07:40:14.699Z,64.18
2023-03-01T07:42:41.221Z,63.92
2023-03-01T07:45:08.731Z,65.13
2023-03-01T07:47:35.179Z,64.79
2023-03-01T07:50:02.174Z,63.96
2023-03-01T07:52:28.881Z,63.77
2023-03-01T07:54:55.406Z,64.11
2023-03-01T07:57:23.972Z,63.65
2023-03-01T07:59:50.406Z,63.91
2023-03-01T08:02:16.947Z,63.37
2023-03-01T08:04:43.802Z,63.04
2023-03-01T08:07:10.248Z,62.79
2023-03-01T08:09:40.003Z,62.69
2023-03-01T08:12:06.737Z,63.01
2023-03-01T08:14:34.172Z,63.85
2023-03-01T08:17:00.785Z,62.83
2023-03-01T08:19:28.978Z,63.67
2023-03-01T08:21:55.975Z,63.36
2023-03-01T08:24:23.152Z,63.74
2023-03-01T08:26:49.600Z,62.98
2023-03-01T08:29:16.156Z,62.84
2023-03-01T08:31:42.759Z,62.11
2023-03-01T08:34:15.954Z,61.25
2023-03-01T08:36:46.282Z,61.35
2023-03-01T08:39:17.725Z,60.32
2023-03-01T08:41:45.929Z,60.79
2023-03-01T08:44:17.525Z,60.17
2023-03-01T08:46:46.354Z,59.94
2023-03-01T08:49:16.690Z,59.24
2023-03-01T08:51:45.849Z,59.16
2023-03-01T08:54:19.129Z,58.41
2023-03-01T08:56:49.143Z,58.50
2023-03-01T08:59:18.262Z,57.81
2023-03-01T09:01:45.200Z,57.50
2023-03-01T09:04:13.783Z,57.11
2023-03-01T09:06:40.303Z,57.02
2023-03-01T09:09:08.835Z,56.50
2023-03-01T09:11:35.288Z,56.39
2023-03-01T09:14:01.775Z,56.37
2023-03-01T09:16:28.471Z,55.96
2023-03-01T09:18:55.748Z,55.94
2023-03-01T09:21:38.975Z,55.79
2023-03-01T09:24:13.286Z,55.95
2023-03-01T09:26:39.821Z,54.65
2023-03-01T09:29:06.630Z,54.33
2023-03-01T09:31:35.108Z,54.35
2023-03-01T09:34:05.667Z,54.33
2023-03-01T09:36:32.642Z,54.10
2023-03-01T09:39:00.824Z,53.77
2023-03-01T09:42:05.113Z,52.78
2023-03-01T09:44:43.481Z,53.57
2023-03-01T09:47:25.104Z,52.49
2023-03-01T09:50:29.012Z,52.81
2023-03-01T09:53:01.119Z,53.32
2023-03-01T09:55:51.501Z,53.12
2023-03-01T09:58:32.867Z,53.12
2023-03-01T10:01:24.596Z,52.11
2023-03-01T10:04:23.044Z,51.71
2023-03-01T10:07:13.647Z,51.94
2023-03-01T10:09:48.361Z,51.93
2023-03-01T10:12:24.293Z,51.96
2023-03-01T10:15:22.016Z,51.10
2023-03-01T10:17:55.901Z,50.75
2023-03-01T10:20:47.748Z,51.69
2023-03-01T10:23:14.274Z,52.05
2023-03-01T10:26:26.998Z,50.86
2023-03-01T10:29:13.278Z,50.13
2023-03-01T10:31:44.177Z,50.55
2023-03-01T10:34:21.220Z,50.50
2023-03-01T10:37:01.916Z,49.36
2023-03-01T10:39:30.955Z,50.14
2023-03-01T10:42:03.654Z,49.69
2023-03-01T10:44:45.310Z,48.39
2023-03-01T10:47:21.151Z,48.48
2023-03-01T10:50:06.830Z,48.65
2023-03-01T10:52:42.174Z,49.12
2023-03-01T10:58:23.637Z,49.13
2023-03-01T11:00:58.503Z,48.12
2023-03-01T11:03:33.468Z,47.58
2023-03-01T11:06:12.586Z,48.01
2023-03-01T11:08:51.572Z,47.22
2023-03-01T11:11:33.665Z,47.23
2023-03-01T11:14:26.812Z,47.46
2023-03-01T11:17:31.611Z,47.14
2023-03-01T11:20:14.771Z,46.91
2023-03-01T11:23:10.932Z,44.95
2023-03-01T11:25:42.748Z,46.24
2023-03-01T11:28:18.183Z,46.86
2023-03-01T11:31:07.091Z,45.77
2023-03-01T11:34:07.582Z,44.58
2023-03-01T11:36:43.632Z,46.39
2023-03-01T11:39:19.870Z,45.75
2023-03-01T11:41:53.365Z,45.64
2023-03-01T11:44:29.321Z,44.31
2023-03-01T11:47:24.181Z,45.80
2023-03-01T11:50:20.841Z,43.89
2023-03-01T11:53:39.573Z,44.65
2023-03-01T11:56:27.540Z,42.60
2023-03-01T11:59:08.788Z,45.17
2023-03-01T12:01:57.915Z,43.34
2023-03-01T12:04:30.159Z,43.44
2023-03-01T12:07:18.508Z,43.73
2023-03-01T12:10:16.461Z,42.75
2023-03-01T12:13:28.641Z,43.02
2023-03-01T12:16:26.028Z,43.35
2023-03-01T12:18:58.749Z,43.09
2023-03-01T12:22:00.346Z,41.59
2023-03-01T12:25:07.513Z,42.08
2023-03-01T12:28:13.071Z,41.64
2023-03-01T12:31:16.983Z,42.91
2023-03-01T12:34:28.664Z,41.97
2023-03-01T12:37:26.316Z,40.13
2023-03-01T12:40:17.359Z,41.13
2023-03-01T12:43:19.594Z,42.61
2023-03-01T12:46:26.458Z,40.71
2023-03-01T12:49:22.447Z,40.18
2023-03-01T12:52:02.904Z,41.97
2023-03-01T12:54:36.957Z,41.32
2023-03-01T12:57:39.174Z,41.29
2023-03-01T13:00:51.242Z,41.72
2023-03-01T13:03:32.309Z,41.41
2023-03-01T13:06:46.285Z,39.49
2023-03-01T13:09:45.520Z,40.08
2023-03-01T13:12:51.236Z,38.38
2023-03-01T13:15:23.724Z,40.01
2023-03-01T13:18:20.284Z,38.33
2023-03-01T13:20:51.198Z,38.71
2023-03-01T13:23:21.348Z,39.29
2023-03-01T13:26:19.087Z,36.35
2023-03-01T13:28:45.537Z,38.48
2023-03-01T13:31:32.024Z,37.27
2023-03-01T13:34:08.180Z,39.29
2023-03-01T13:36:37.507Z,38.00
2023-03-01T13:39:32.284Z,38.16
2023-03-01T13:42:00.907Z,38.54
2023-03-01T13:44:37.482Z,38.35
2023-03-01T13:47:06.742Z,38.22
2023-03-01T13:49:53.024Z,37.24
2023-03-01T13:52:47.517Z,38.16
2023-03-01T13:55:43.948Z,37.80
2023-03-01T13:58:32.332Z,37.73
2023-03-01T14:01:07.014Z,37.85
2023-03-01T14:03:43.062Z,38.06
2023-03-01T14:06:21.090Z,37.01
2023-03-01T14:08:51.817Z,38.03
2023-03-01T14:11:39.948Z,36.12
2023-03-01T14:14:42.888Z,36.69
2023-03-01T14:18:03.517Z,37.30
2023-03-01T14:20:44.356Z,37.93
2023-03-01T14:23:19.394Z,37.88
2023-03-01T14:25:52.893Z,37.23
2023-03-01T14:28:30.286Z,37.66
2023-03-01T14:31:00.342Z,37.78
2023-03-01T14:33:38.075Z,36.60
2023-03-01T14:36:13.264Z,36.98
2023-03-01T14:38:46.362Z,37.88
2023-03-01T14:41:24.145Z,37.29
2023-03-01T14:44:01.868Z,37.83
2023-03-01T14:46:39.959Z,37.53
2023-03-01T14:49:17.824Z,38.09
2023-03-01T14:51:55.584Z,37.24
2023-03-01T14:54:37.090Z,38.82
2023-03-01T14:57:03.719Z,38.69
2023-03-01T14:59:30.357Z,39.20
2023-03-01T15:01:59.081Z,38.77
2023-03-01T15:04:28.415Z,38.43
2023-03-01T15:07:05.600Z,38.18
2023-03-01T15:09:37.453Z,38.16
2023-03-01T15:12:29.918Z,36.86
2023-03-01T15:15:03.873Z,38.05
2023-03-01T15:17:36.787Z,38.17
2023-03-01T15:20:17.574Z,37.43
2023-03-01T15:22:49.436Z,38.25
2023-03-01T15:25:20.416Z,38.41
2023-03-01T15:27:50.276Z,38.66
2023-03-01T15:30:38.155Z,38.28
2023-03-01T15:33:29.922Z,37.91
2023-03-01T15:36:00.091Z,38.55
2023-03-01T15:38:54.083Z,38.14
2023-03-01T15:41:34.053Z,38.46
2023-03-01T15:44:15.124Z,38.50
2023-03-01T15:46:49.214Z,38.32
2023-03-01T15:49:54.299Z,38.10
2023-03-01T15:52:32.250Z,38.55
2023-03-01T15:55:03.251Z,38.47
2023-03-01T15:57:30.632Z,38.70
2023-03-01T15:59:57.208Z,38.67
2023-03-01T16:02:25.603Z,38.71
2023-03-01T16:04:52.254Z,38.92
2023-03-01T16:07:18.792Z,38.85
2023-03-01T16:09:45.417Z,38.43
2023-03-01T16:12:17.558Z,37.86
2023-03-01T16:14:44.116Z,38.42
2023-03-01T16:17:11.236Z,38.72
2023-03-01T16:19:41.935Z,38.46
2023-03-01T16:22:11.531Z,38.64
2023-03-01T16:24:38.391Z,38.66
2023-03-01T16:27:04.893Z,38.88
2023-03-01T16:29:31.449Z,38.77
2023-03-01T16:32:00.624Z,39.00
2023-03-01T16:34:27.212Z,39.08
2023-03-01T16:36:53.663Z,39.70
2023-03-01T16:39:20.140Z,39.91
2023-03-01T16:41:46.696Z,39.97
2023-03-01T16:44:13.178Z,40.09
2023-03-01T16:46:43.816Z,40.16
2023-03-01T16:49:10.632Z,40.11
2023-03-01T16:51:37.198Z,39.91
2023-03-01T16:54:05.433Z,40.74
2023-03-01T16:56:33.900Z,40.55
2023-03-01T16:59:01.744Z,40.95
2023-03-01T17:01:38.198Z,41.11
2023-03-01T17:04:05.080Z,41.52
2023-03-01T17:06:33.149Z,41.54
2023-03-01T17:09:00.295Z,42.34
2023-03-01T17:11:27.284Z,42.93
2023-03-01T17:13:53.859Z,42.32
2023-03-01T17:16:21.610Z,42.63
2023-03-01T17:18:49.301Z,42.54
2023-03-01T17:21:17.400Z,41.95
2023-03-01T17:23:46.430Z,42.17
2023-03-01T17:26:13.519Z,42.17
2023-03-01T17:28:40.456Z,42.23
2023-03-01T17:31:07.922Z,42.80
2023-03-01T17:33:34.516Z,42.67
2023-03-01T17:36:01.916Z,42.89
2023-03-01T17:38:28.463Z,42.85
2023-03-01T17:40:55.043Z,43.27
2023-03-01T17:43:21.862Z,44.05
2023-03-01T17:45:50.585Z,43.83
2023-03-01T17:48:17.906Z,44.35
2023-03-01T17:50:44.930Z,44.76
2023-03-01T17:53:12.760Z,44.52
2023-03-01T17:55:41.753Z,44.29
2023-03-01T17:58:11.748Z,44.61
2023-03-01T18:00:39.229Z,45.01
2023-03-01T18:03:05.992Z,44.92
2023-03-01T18:05:39.891Z,44.77
2023-03-01T18:08:06.691Z,44.36
2023-03-01T18:10:36.341Z,44.66
2023-03-01T18:13:05.120Z,44.54
2023-03-01T18:15:33.608Z,44.25
2023-03-01T18:18:00.102Z,44.74
2023-03-01T18:20:27.410Z,44.95
2023-03-01T18:22:53.955Z,44.87
2023-03-01T18:25:20.455Z,45.73
2023-03-01T18:27:46.997Z,46.16
2023-03-01T18:30:14.664Z,46.17
2023-03-01T18:32:41.187Z,46.33
2023-03-01T18:35:08.379Z,46.19
2023-03-01T18:37:34.857Z,46.58
2023-03-01T18:40:01.369Z,46.15
2023-03-01T18:42:30.698Z,46.51
2023-03-01T18:44:57.235Z,46.98
2023-03-01T18:47:23.731Z,46.30
2023-03-01T18:49:50.256Z,46.48
2023-03-01T18:52:16.770Z,46.88
2023-03-01T18:54:43.220Z,46.76
2023-03-01T18:57:09.677Z,47.29
2023-03-01T18:59:36.235Z,46.74
2023-03-01T19:02:02.868Z,46.57
2023-03-01T19:04:29.453Z,47.27
2023-03-01T19:06:56.038Z,46.95
2023-03-01T19:09:22.499Z,46.55
2023-03-01T19:11:48.947Z,46.65
2023-03-01T19:14:15.478Z,46.81
2023-03-01T19:16:42.001Z,47.00
2023-03-01T19:19:09.949Z,47.58
2023-03-01T19:21:37.301Z,47.34
2023-03-01T19:24:04.576Z,48.15
2023-03-01T19:26:32.753Z,47.97
2023-03-01T19:29:00.569Z,47.90
2023-03-01T19:31:30.595Z,48.05
2023-03-01T19:34:09.947Z,48.21
2023-03-01T19:36:37.944Z,48.60
2023-03-01T19:39:06.755Z,48.80
2023-03-01T19:41:34.398Z,48.55
2023-03-01T19:44:05.731Z,48.66
2023-03-01T19:46:33.909Z,49.06
2023-03-01T19:49:02.993Z,49.19
2023-03-01T19:51:30.428Z,50.02
2023-03-01T19:53:57.052Z,49.96
2023-03-01T19:56:23.529Z,50.05
2023-03-01T19:58:51.073Z,50.16
2023-03-01T20:01:22.289Z,50.09
2023-03-01T20:03:48.856Z,50.74
2023-03-01T20:06:21.413Z,50.64
2023-03-01T20:08:49.112Z,50.76
2023-03-01T20:11:18.238Z,50.33
2023-03-01T20:13:45.857Z,50.70
2023-03-01T20:16:17.880Z,50.70
2023-03-01T20:18:44.543Z,51.72
2023-03-01T20:21:22.805Z,51.11
2023-03-01T20:23:50.350Z,51.06
2023-03-01T20:26:19.508Z,51.76
2023-03-01T20:28:53.142Z,51.61
2023-03-01T20:31:22.684Z,51.14
2023-03-01T20:33:49.632Z,51.17
2023-03-01T20:36:16.463Z,51.33
2023-03-01T20:38:43.028Z,50.78
2023-03-01T20:41:13.482Z,51.26
2023-03-01T20:43:42.591Z,51.37
2023-03-01T20:46:12.583Z,51.19
2023-03-01T20:48:47.848Z,51.21
2023-03-01T20:51:15.221Z,50.73
2023-03-01T20:53:42.054Z,50.44
2023-03-01T20:56:13.097Z,50.43
2023-03-01T20:58:41.157Z,50.72
2023-03-01T21:01:09.913Z,50.13
2023-03-01T21:03:36.737Z,50.14
2023-03-01T21:06:06.204Z,49.99
2023-03-01T21:08:34.775Z,50.14
2023-03-01T21:11:02.416Z,49.86
2023-03-01T21:13:34.396Z,50.05
2023-03-01T21:16:04.497Z,50.01
2023-03-01T21:18:34.797Z,49.90
2023-03-01T21:21:08.899Z,50.20
2023-03-01T21:23:38.272Z,50.35
2023-03-01T21:26:07.463Z,50.23
2023-03-01T21:28:40.882Z,50.10
2023-03-01T21:31:20.848Z,50.08
2023-03-01T21:33:53.785Z,49.89
2023-03-01T21:36:22.205Z,49.88
2023-03-01T21:38:50.447Z,49.60
2023-03-01T21:41:34.250Z,49.87
2023-03-01T21:44:08.311Z,49.67
2023-03-01T21:46:38.668Z,49.84
2023-03-01T21:49:07.127Z,49.70
2023-03-01T21:51:35.089Z,49.88
2023-03-01T21:54:01.602Z,50.39
2023-03-01T21:56:32.120Z,50.37
2023-03-01T21:58:59.040Z,50.77
2023-03-01T22:01:28.089Z,50.80
2023-03-01T22:03:57.222Z,51.35
2023-03-01T22:06:35.063Z,51.84
2023-03-01T22:09:11.273Z,51.72
2023-03-01T22:11:42.861Z,52.40
2023-03-01T22:14:13.486Z,52.45
2023-03-01T22:16:42.801Z,52.37
2023-03-01T22:19:09.536Z,52.30
2023-03-01T22:21:44.582Z,52.11
2023-03-01T22:24:13.544Z,52.15
2023-03-01T22:26:43.704Z,52.27
2023-03-01T22:29:15.467Z,52.23
2023-03-01T22:31:42.815Z,53.26
2023-03-01T22:34:10.392Z,53.43
2023-03-01T22:36:39.203Z,52.95
2023-03-01T22:39:06.313Z,52.49
2023-03-01T22:41:46.054Z,52.16
2023-03-01T22:44:16.035Z,52.46
2023-03-01T22:46:43.581Z,52.74
2023-03-01T22:49:11.187Z,52.21
2023-03-01T22:51:41.097Z,52.42
2023-03-01T22:54:09.699Z,52.71
2023-03-01T22:56:37.835Z,52.80
2023-03-01T22:59:08.750Z,53.24
2023-03-01T23:01:36.863Z,52.62
2023-03-01T23:04:04.086Z,52.67
2023-03-01T23:06:31.216Z,52.92
2023-03-01T23:09:04.329Z,52.96
2023-03-01T23:11:30.845Z,53.15
2023-03-01T23:13:59.149Z,52.61
2023-03-01T23:16:25.828Z,52.59
2023-03-01T23:18:59.038Z,53.26
2023-03-01T23:21:26.969Z,53.27
2023-03-01T23:23:55.764Z,53.17
2023-03-01T23:26:24.815Z,53.04
2023-03-01T23:28:51.563Z,53.25
2023-03-01T23:31:18.335Z,53.17
2023-03-01T23:33:46.769Z,53.34
2023-03-01T23:36:26.850Z,53.27
2023-03-01T23:39:01.626Z,53.58
2023-03-01T23:41:30.979Z,53.55
2023-03-01T23:44:01.170Z,54.36
2023-03-01T23:46:34.066Z,54.30
2023-03-01T23:49:02.079Z,54.36
2023-03-01T23:51:28.965Z,54.46
2023-03-01T23:54:02.267Z,54.10
2023-03-01T23:56:35.929Z,53.77
2023-03-01T23:59:11.895Z,54.26
